sensor_id;sensor_type;location;lat;lon;timestamp;P1;durP1;ratioP1;P2;durP2;ratioP2
77800;SDS011;66991;50.058;14.454;2023-12-29T00:01:13;3.10;;;1.90;;
77800;SDS011;66991;50.058;14.454;2023-12-29T00:03:38;6.82;;;2.50;;
77800;SDS011;66991;50.058;14.454;2023-12-29T00:06:03;5.60;;;2.45;;
77800;SDS011;66991;50.058;14.454;2023-12-29T00:08:29;4.20;;;2.10;;
77800;SDS011;66991;50.058;14.454;2023-12-29T00:10:56;6.25;;;1.85;;
77800;SDS011;66991;50.058;14.454;2023-12-29T00:13:21;5.20;;;2.30;;
77800;SDS011;66991;50.058;14.454;2023-12-29T00:15:51;4.18;;;1.90;;
77800;SDS011;66991;50.058;14.454;2023-12-29T00:18:17;4.05;;;1.73;;
77800;SDS011;66991;50.058;14.454;2023-12-29T00:20:43;3.67;;;1.73;;
77800;SDS011;66991;50.058;14.454;2023-12-29T00:23:08;4.38;;;1.75;;
77800;SDS011;66991;50.058;14.454;2023-12-29T00:25:36;3.22;;;1.60;;
77800;SDS011;66991;50.058;14.454;2023-12-29T00:28:02;6.55;;;2.67;;
77800;SDS011;66991;50.058;14.454;2023-12-29T00:30:28;3.88;;;1.90;;
77800;SDS011;66991;50.058;14.454;2023-12-29T00:32:57;5.43;;;2.45;;
77800;SDS011;66991;50.058;14.454;2023-12-29T00:35:22;4.88;;;2.40;;
77800;SDS011;66991;50.058;14.454;2023-12-29T00:37:47;7.18;;;2.55;;
77800;SDS011;66991;50.058;14.454;2023-12-29T00:40:14;3.88;;;1.77;;
77800;SDS011;66991;50.058;14.454;2023-12-29T00:42:39;4.10;;;2.03;;
77800;SDS011;66991;50.058;14.454;2023-12-29T00:45:05;4.10;;;2.00;;
77800;SDS011;66991;50.058;14.454;2023-12-29T00:47:31;4.50;;;2.03;;
77800;SDS011;66991;50.058;14.454;2023-12-29T00:49:56;6.70;;;2.03;;
77800;SDS011;66991;50.058;14.454;2023-12-29T00:52:21;4.70;;;1.77;;
77800;SDS011;66991;50.058;14.454;2023-12-29T00:54:47;3.78;;;1.98;;
77800;SDS011;66991;50.058;14.454;2023-12-29T00:57:12;6.68;;;1.75;;
77800;SDS011;66991;50.058;14.454;2023-12-29T00:59:37;6.35;;;2.03;;
77800;SDS011;66991;50.058;14.454;2023-12-29T01:02:04;6.38;;;2.30;;
77800;SDS011;66991;50.058;14.454;2023-12-29T01:04:30;2.35;;;1.42;;
77800;SDS011;66991;50.058;14.454;2023-12-29T01:06:55;3.22;;;1.70;;
77800;SDS011;66991;50.058;14.454;2023-12-29T01:09:20;5.90;;;1.83;;
77800;SDS011;66991;50.058;14.454;2023-12-29T01:11:46;3.40;;;1.75;;
77800;SDS011;66991;50.058;14.454;2023-12-29T01:14:11;3.35;;;1.58;;
77800;SDS011;66991;50.058;14.454;2023-12-29T01:16:36;4.80;;;1.90;;
77800;SDS011;66991;50.058;14.454;2023-12-29T01:19:02;4.63;;;1.80;;
77800;SDS011;66991;50.058;14.454;2023-12-29T01:21:27;4.63;;;1.60;;
77800;SDS011;66991;50.058;14.454;2023-12-29T01:23:53;3.78;;;1.85;;
77800;SDS011;66991;50.058;14.454;2023-12-29T01:26:18;4.20;;;1.83;;
77800;SDS011;66991;50.058;14.454;2023-12-29T01:28:43;5.15;;;1.90;;
77800;SDS011;66991;50.058;14.454;2023-12-29T01:31:08;4.22;;;1.67;;
77800;SDS011;66991;50.058;14.454;2023-12-29T01:33:36;3.35;;;1.55;;
77800;SDS011;66991;50.058;14.454;2023-12-29T01:36:01;4.53;;;1.60;;
77800;SDS011;66991;50.058;14.454;2023-12-29T01:38:26;3.22;;;1.75;;
77800;SDS011;66991;50.058;14.454;2023-12-29T01:40:52;3.85;;;1.52;;
77800;SDS011;66991;50.058;14.454;2023-12-29T01:43:17;3.80;;;1.80;;
77800;SDS011;66991;50.058;14.454;2023-12-29T01:45:42;2.38;;;1.33;;
77800;SDS011;66991;50.058;14.454;2023-12-29T01:48:08;3.10;;;1.50;;
77800;SDS011;66991;50.058;14.454;2023-12-29T01:50:34;2.83;;;1.42;;
77800;SDS011;66991;50.058;14.454;2023-12-29T01:52:59;2.60;;;1.30;;
77800;SDS011;66991;50.058;14.454;2023-12-29T01:55:26;7.43;;;1.95;;
77800;SDS011;66991;50.058;14.454;2023-12-29T01:57:53;2.92;;;1.80;;
77800;SDS011;66991;50.058;14.454;2023-12-29T02:00:19;3.08;;;1.35;;
77800;SDS011;66991;50.058;14.454;2023-12-29T02:02:45;3.08;;;1.73;;
77800;SDS011;66991;50.058;14.454;2023-12-29T02:05:14;3.60;;;1.80;;
77800;SDS011;66991;50.058;14.454;2023-12-29T02:07:41;3.30;;;1.50;;
77800;SDS011;66991;50.058;14.454;2023-12-29T02:10:07;4.68;;;1.58;;
77800;SDS011;66991;50.058;14.454;2023-12-29T02:12:34;4.10;;;1.65;;
77800;SDS011;66991;50.058;14.454;2023-12-29T02:15:00;3.13;;;1.48;;
77800;SDS011;66991;50.058;14.454;2023-12-29T02:17:26;2.90;;;1.27;;
77800;SDS011;66991;50.058;14.454;2023-12-29T02:19:54;4.15;;;1.50;;
77800;SDS011;66991;50.058;14.454;2023-12-29T02:22:20;3.35;;;1.60;;
77800;SDS011;66991;50.058;14.454;2023-12-29T02:24:46;5.95;;;1.50;;
77800;SDS011;66991;50.058;14.454;2023-12-29T02:27:22;3.70;;;1.95;;
77800;SDS011;66991;50.058;14.454;2023-12-29T02:29:52;2.85;;;1.27;;
77800;SDS011;66991;50.058;14.454;2023-12-29T02:32:21;3.20;;;1.48;;
77800;SDS011;66991;50.058;14.454;2023-12-29T02:34:47;2.63;;;1.40;;
77800;SDS011;66991;50.058;14.454;2023-12-29T02:37:13;3.97;;;1.52;;
77800;SDS011;66991;50.058;14.454;2023-12-29T02:39:39;3.25;;;1.63;;
77800;SDS011;66991;50.058;14.454;2023-12-29T02:42:04;3.30;;;1.77;;
77800;SDS011;66991;50.058;14.454;2023-12-29T02:44:30;2.80;;;1.40;;
77800;SDS011;66991;50.058;14.454;2023-12-29T02:46:55;3.85;;;1.67;;
77800;SDS011;66991;50.058;14.454;2023-12-29T02:49:20;5.00;;;1.48;;
77800;SDS011;66991;50.058;14.454;2023-12-29T02:51:46;2.10;;;1.35;;
77800;SDS011;66991;50.058;14.454;2023-12-29T02:54:13;2.85;;;1.50;;
77800;SDS011;66991;50.058;14.454;2023-12-29T02:56:38;2.72;;;1.50;;
77800;SDS011;66991;50.058;14.454;2023-12-29T02:59:03;3.20;;;1.60;;
77800;SDS011;66991;50.058;14.454;2023-12-29T03:01:29;3.17;;;1.60;;
77800;SDS011;66991;50.058;14.454;2023-12-29T03:03:54;2.72;;;1.50;;
77800;SDS011;66991;50.058;14.454;2023-12-29T03:06:20;3.63;;;1.55;;
77800;SDS011;66991;50.058;14.454;2023-12-29T03:08:45;3.10;;;1.40;;
77800;SDS011;66991;50.058;14.454;2023-12-29T03:11:10;3.00;;;1.40;;
77800;SDS011;66991;50.058;14.454;2023-12-29T03:13:35;2.70;;;1.30;;
77800;SDS011;66991;50.058;14.454;2023-12-29T03:16:01;3.42;;;1.45;;
77800;SDS011;66991;50.058;14.454;2023-12-29T03:18:26;2.83;;;1.40;;
77800;SDS011;66991;50.058;14.454;2023-12-29T03:20:52;2.53;;;1.65;;
77800;SDS011;66991;50.058;14.454;2023-12-29T03:23:17;2.97;;;1.50;;
77800;SDS011;66991;50.058;14.454;2023-12-29T03:25:42;2.53;;;1.30;;
77800;SDS011;66991;50.058;14.454;2023-12-29T03:28:08;2.80;;;1.45;;
77800;SDS011;66991;50.058;14.454;2023-12-29T03:30:33;1.95;;;1.25;;
77800;SDS011;66991;50.058;14.454;2023-12-29T03:32:58;3.38;;;1.60;;
77800;SDS011;66991;50.058;14.454;2023-12-29T03:35:23;2.78;;;1.50;;
77800;SDS011;66991;50.058;14.454;2023-12-29T03:37:49;3.83;;;1.73;;
77800;SDS011;66991;50.058;14.454;2023-12-29T03:40:14;2.30;;;1.35;;
77800;SDS011;66991;50.058;14.454;2023-12-29T03:42:39;3.10;;;1.50;;
77800;SDS011;66991;50.058;14.454;2023-12-29T03:45:05;3.10;;;1.45;;
77800;SDS011;66991;50.058;14.454;2023-12-29T03:47:31;3.15;;;1.27;;
77800;SDS011;66991;50.058;14.454;2023-12-29T03:49:56;2.55;;;1.30;;
77800;SDS011;66991;50.058;14.454;2023-12-29T03:52:22;2.80;;;1.30;;
77800;SDS011;66991;50.058;14.454;2023-12-29T03:54:47;2.10;;;1.10;;
77800;SDS011;66991;50.058;14.454;2023-12-29T03:57:12;2.38;;;1.30;;
77800;SDS011;66991;50.058;14.454;2023-12-29T03:59:38;2.88;;;1.30;;
77800;SDS011;66991;50.058;14.454;2023-12-29T04:02:03;3.22;;;1.35;;
77800;SDS011;66991;50.058;14.454;2023-12-29T04:04:28;2.65;;;1.50;;
77800;SDS011;66991;50.058;14.454;2023-12-29T04:06:54;2.53;;;1.40;;
77800;SDS011;66991;50.058;14.454;2023-12-29T04:09:19;2.17;;;1.17;;
77800;SDS011;66991;50.058;14.454;2023-12-29T04:11:45;2.97;;;1.25;;
77800;SDS011;66991;50.058;14.454;2023-12-29T04:14:10;3.20;;;1.40;;
77800;SDS011;66991;50.058;14.454;2023-12-29T04:16:37;4.57;;;1.40;;
77800;SDS011;66991;50.058;14.454;2023-12-29T04:19:03;4.10;;;1.50;;
77800;SDS011;66991;50.058;14.454;2023-12-29T04:21:28;2.55;;;0.98;;
77800;SDS011;66991;50.058;14.454;2023-12-29T04:23:55;2.22;;;1.40;;
77800;SDS011;66991;50.058;14.454;2023-12-29T04:26:20;2.00;;;1.10;;
77800;SDS011;66991;50.058;14.454;2023-12-29T04:28:46;3.00;;;1.13;;
77800;SDS011;66991;50.058;14.454;2023-12-29T04:31:11;5.03;;;1.52;;
77800;SDS011;66991;50.058;14.454;2023-12-29T04:33:36;3.28;;;1.30;;
77800;SDS011;66991;50.058;14.454;2023-12-29T04:36:02;2.35;;;1.10;;
77800;SDS011;66991;50.058;14.454;2023-12-29T04:38:27;2.50;;;1.20;;
77800;SDS011;66991;50.058;14.454;2023-12-29T04:40:53;2.92;;;1.05;;
77800;SDS011;66991;50.058;14.454;2023-12-29T04:43:18;1.95;;;1.05;;
77800;SDS011;66991;50.058;14.454;2023-12-29T04:45:43;2.38;;;1.00;;
77800;SDS011;66991;50.058;14.454;2023-12-29T04:48:08;2.47;;;0.93;;
77800;SDS011;66991;50.058;14.454;2023-12-29T04:50:34;3.13;;;1.10;;
77800;SDS011;66991;50.058;14.454;2023-12-29T04:52:59;3.78;;;1.10;;
77800;SDS011;66991;50.058;14.454;2023-12-29T04:55:24;3.78;;;1.23;;
77800;SDS011;66991;50.058;14.454;2023-12-29T04:57:50;1.60;;;0.85;;
77800;SDS011;66991;50.058;14.454;2023-12-29T05:00:15;2.72;;;1.13;;
77800;SDS011;66991;50.058;14.454;2023-12-29T05:02:40;2.95;;;1.30;;
77800;SDS011;66991;50.058;14.454;2023-12-29T05:05:06;1.80;;;1.10;;
77800;SDS011;66991;50.058;14.454;2023-12-29T05:07:31;2.28;;;0.90;;
77800;SDS011;66991;50.058;14.454;2023-12-29T05:09:56;2.38;;;1.23;;
77800;SDS011;66991;50.058;14.454;2023-12-29T05:12:22;1.83;;;0.98;;
77800;SDS011;66991;50.058;14.454;2023-12-29T05:14:47;1.92;;;0.90;;
77800;SDS011;66991;50.058;14.454;2023-12-29T05:17:12;2.03;;;1.05;;
77800;SDS011;66991;50.058;14.454;2023-12-29T05:19:38;2.35;;;1.10;;
77800;SDS011;66991;50.058;14.454;2023-12-29T05:22:03;2.35;;;1.00;;
77800;SDS011;66991;50.058;14.454;2023-12-29T05:24:28;2.63;;;1.13;;
77800;SDS011;66991;50.058;14.454;2023-12-29T05:26:54;2.88;;;1.40;;
77800;SDS011;66991;50.058;14.454;2023-12-29T05:29:19;1.70;;;0.88;;
77800;SDS011;66991;50.058;14.454;2023-12-29T05:31:44;3.20;;;1.08;;
77800;SDS011;66991;50.058;14.454;2023-12-29T05:34:10;2.47;;;1.10;;
77800;SDS011;66991;50.058;14.454;2023-12-29T05:36:36;2.88;;;1.10;;
77800;SDS011;66991;50.058;14.454;2023-12-29T05:39:02;1.98;;;1.00;;
77800;SDS011;66991;50.058;14.454;2023-12-29T05:41:28;3.53;;;1.20;;
77800;SDS011;66991;50.058;14.454;2023-12-29T05:43:53;2.92;;;1.00;;
77800;SDS011;66991;50.058;14.454;2023-12-29T05:46:19;2.50;;;1.35;;
77800;SDS011;66991;50.058;14.454;2023-12-29T05:48:46;3.00;;;1.10;;
77800;SDS011;66991;50.058;14.454;2023-12-29T05:51:12;3.30;;;1.42;;
77800;SDS011;66991;50.058;14.454;2023-12-29T05:53:41;2.20;;;1.17;;
77800;SDS011;66991;50.058;14.454;2023-12-29T05:56:06;1.67;;;0.90;;
77800;SDS011;66991;50.058;14.454;2023-12-29T05:58:32;3.03;;;1.27;;
77800;SDS011;66991;50.058;14.454;2023-12-29T06:00:57;1.92;;;0.95;;
77800;SDS011;66991;50.058;14.454;2023-12-29T06:03:25;1.52;;;0.93;;
77800;SDS011;66991;50.058;14.454;2023-12-29T06:05:50;1.73;;;1.00;;
77800;SDS011;66991;50.058;14.454;2023-12-29T06:08:16;2.42;;;1.40;;
77800;SDS011;66991;50.058;14.454;2023-12-29T06:10:41;3.60;;;0.93;;
77800;SDS011;66991;50.058;14.454;2023-12-29T06:13:07;6.30;;;2.30;;
77800;SDS011;66991;50.058;14.454;2023-12-29T06:15:32;4.47;;;2.00;;
77800;SDS011;66991;50.058;14.454;2023-12-29T06:17:57;4.50;;;1.55;;
77800;SDS011;66991;50.058;14.454;2023-12-29T06:20:23;4.00;;;1.65;;
77800;SDS011;66991;50.058;14.454;2023-12-29T06:22:49;3.13;;;1.50;;
77800;SDS011;66991;50.058;14.454;2023-12-29T06:25:14;2.55;;;1.27;;
77800;SDS011;66991;50.058;14.454;2023-12-29T06:27:40;2.50;;;1.40;;
77800;SDS011;66991;50.058;14.454;2023-12-29T06:30:08;2.67;;;1.10;;
77800;SDS011;66991;50.058;14.454;2023-12-29T06:32:36;3.17;;;1.50;;
77800;SDS011;66991;50.058;14.454;2023-12-29T06:35:01;2.05;;;1.10;;
77800;SDS011;66991;50.058;14.454;2023-12-29T06:37:27;2.50;;;1.27;;
77800;SDS011;66991;50.058;14.454;2023-12-29T06:39:53;3.05;;;1.13;;
77800;SDS011;66991;50.058;14.454;2023-12-29T06:42:18;2.38;;;1.08;;
77800;SDS011;66991;50.058;14.454;2023-12-29T06:44:44;4.50;;;1.30;;
77800;SDS011;66991;50.058;14.454;2023-12-29T06:47:09;2.40;;;1.10;;
77800;SDS011;66991;50.058;14.454;2023-12-29T06:49:36;3.65;;;1.48;;
77800;SDS011;66991;50.058;14.454;2023-12-29T06:52:01;2.67;;;1.45;;
77800;SDS011;66991;50.058;14.454;2023-12-29T06:54:27;2.38;;;1.20;;
77800;SDS011;66991;50.058;14.454;2023-12-29T06:56:52;2.00;;;1.10;;
77800;SDS011;66991;50.058;14.454;2023-12-29T06:59:17;3.00;;;1.50;;
77800;SDS011;66991;50.058;14.454;2023-12-29T07:01:44;2.15;;;1.20;;
77800;SDS011;66991;50.058;14.454;2023-12-29T07:04:10;4.22;;;1.40;;
77800;SDS011;66991;50.058;14.454;2023-12-29T07:06:36;2.30;;;1.15;;
77800;SDS011;66991;50.058;14.454;2023-12-29T07:09:01;3.45;;;1.20;;
77800;SDS011;66991;50.058;14.454;2023-12-29T07:11:27;2.55;;;1.60;;
77800;SDS011;66991;50.058;14.454;2023-12-29T07:13:53;3.40;;;1.13;;
77800;SDS011;66991;50.058;14.454;2023-12-29T07:16:18;4.75;;;1.55;;
77800;SDS011;66991;50.058;14.454;2023-12-29T07:18:45;2.65;;;1.23;;
77800;SDS011;66991;50.058;14.454;2023-12-29T07:21:11;2.90;;;1.50;;
77800;SDS011;66991;50.058;14.454;2023-12-29T07:23:37;2.72;;;1.33;;
77800;SDS011;66991;50.058;14.454;2023-12-29T07:26:02;2.13;;;1.27;;
77800;SDS011;66991;50.058;14.454;2023-12-29T07:28:28;2.85;;;1.40;;
77800;SDS011;66991;50.058;14.454;2023-12-29T07:30:53;4.68;;;1.50;;
77800;SDS011;66991;50.058;14.454;2023-12-29T07:33:18;4.78;;;1.70;;
77800;SDS011;66991;50.058;14.454;2023-12-29T07:35:44;4.65;;;1.20;;
77800;SDS011;66991;50.058;14.454;2023-12-29T07:38:09;2.13;;;1.15;;
77800;SDS011;66991;50.058;14.454;2023-12-29T07:40:34;4.60;;;1.42;;
77800;SDS011;66991;50.058;14.454;2023-12-29T07:43:00;2.88;;;1.40;;
77800;SDS011;66991;50.058;14.454;2023-12-29T07:45:25;4.28;;;1.90;;
77800;SDS011;66991;50.058;14.454;2023-12-29T07:47:50;4.07;;;1.23;;
77800;SDS011;66991;50.058;14.454;2023-12-29T07:50:16;2.13;;;1.30;;
77800;SDS011;66991;50.058;14.454;2023-12-29T07:52:42;2.47;;;1.30;;
77800;SDS011;66991;50.058;14.454;2023-12-29T07:55:08;2.25;;;1.20;;
77800;SDS011;66991;50.058;14.454;2023-12-29T07:57:34;2.70;;;1.38;;
77800;SDS011;66991;50.058;14.454;2023-12-29T07:59:59;2.45;;;1.35;;
77800;SDS011;66991;50.058;14.454;2023-12-29T08:02:26;1.80;;;1.10;;
77800;SDS011;66991;50.058;14.454;2023-12-29T08:04:52;3.47;;;1.75;;
77800;SDS011;66991;50.058;14.454;2023-12-29T08:07:19;2.38;;;1.30;;
77800;SDS011;66991;50.058;14.454;2023-12-29T08:09:44;2.40;;;1.20;;
77800;SDS011;66991;50.058;14.454;2023-12-29T08:12:10;4.90;;;1.60;;
77800;SDS011;66991;50.058;14.454;2023-12-29T08:14:35;2.45;;;1.40;;
77800;SDS011;66991;50.058;14.454;2023-12-29T08:17:00;2.95;;;1.15;;
77800;SDS011;66991;50.058;14.454;2023-12-29T08:19:26;3.53;;;1.45;;
77800;SDS011;66991;50.058;14.454;2023-12-29T08:21:52;2.58;;;1.33;;
77800;SDS011;66991;50.058;14.454;2023-12-29T08:24:17;2.22;;;1.25;;
77800;SDS011;66991;50.058;14.454;2023-12-29T08:26:44;3.65;;;1.55;;
77800;SDS011;66991;50.058;14.454;2023-12-29T08:29:11;2.83;;;1.40;;
77800;SDS011;66991;50.058;14.454;2023-12-29T08:31:36;3.67;;;1.30;;
77800;SDS011;66991;50.058;14.454;2023-12-29T08:34:01;2.75;;;1.38;;
77800;SDS011;66991;50.058;14.454;2023-12-29T08:36:27;2.95;;;1.40;;
77800;SDS011;66991;50.058;14.454;2023-12-29T08:38:52;2.70;;;1.17;;
77800;SDS011;66991;50.058;14.454;2023-12-29T08:41:18;3.33;;;1.50;;
77800;SDS011;66991;50.058;14.454;2023-12-29T08:43:43;2.50;;;1.33;;
77800;SDS011;66991;50.058;14.454;2023-12-29T08:46:09;2.10;;;1.23;;
77800;SDS011;66991;50.058;14.454;2023-12-29T08:48:35;4.60;;;1.60;;
77800;SDS011;66991;50.058;14.454;2023-12-29T08:51:00;4.70;;;1.30;;
77800;SDS011;66991;50.058;14.454;2023-12-29T08:53:26;2.75;;;1.38;;
77800;SDS011;66991;50.058;14.454;2023-12-29T08:55:51;4.13;;;1.50;;
77800;SDS011;66991;50.058;14.454;2023-12-29T08:58:17;3.42;;;1.30;;
77800;SDS011;66991;50.058;14.454;2023-12-29T09:00:42;2.65;;;1.30;;
77800;SDS011;66991;50.058;14.454;2023-12-29T09:03:08;6.95;;;1.40;;
77800;SDS011;66991;50.058;14.454;2023-12-29T09:05:33;2.28;;;1.20;;
77800;SDS011;66991;50.058;14.454;2023-12-29T09:07:59;2.85;;;1.25;;
77800;SDS011;66991;50.058;14.454;2023-12-29T09:10:24;2.80;;;1.33;;
77800;SDS011;66991;50.058;14.454;2023-12-29T09:12:49;2.75;;;1.48;;
77800;SDS011;66991;50.058;14.454;2023-12-29T09:15:15;2.13;;;1.10;;
77800;SDS011;66991;50.058;14.454;2023-12-29T09:17:40;2.58;;;1.35;;
77800;SDS011;66991;50.058;14.454;2023-12-29T09:20:05;2.40;;;1.25;;
77800;SDS011;66991;50.058;14.454;2023-12-29T09:22:33;2.70;;;1.40;;
77800;SDS011;66991;50.058;14.454;2023-12-29T09:24:58;2.58;;;1.30;;
77800;SDS011;66991;50.058;14.454;2023-12-29T09:27:23;3.38;;;1.30;;
77800;SDS011;66991;50.058;14.454;2023-12-29T09:29:49;2.33;;;1.10;;
77800;SDS011;66991;50.058;14.454;2023-12-29T09:32:15;5.00;;;1.40;;
77800;SDS011;66991;50.058;14.454;2023-12-29T09:34:40;3.28;;;1.40;;
77800;SDS011;66991;50.058;14.454;2023-12-29T09:37:05;2.67;;;1.38;;
77800;SDS011;66991;50.058;14.454;2023-12-29T09:39:31;3.25;;;1.40;;
77800;SDS011;66991;50.058;14.454;2023-12-29T09:42:00;3.45;;;1.27;;
77800;SDS011;66991;50.058;14.454;2023-12-29T09:44:26;2.88;;;1.08;;
77800;SDS011;66991;50.058;14.454;2023-12-29T09:46:53;2.53;;;1.10;;
77800;SDS011;66991;50.058;14.454;2023-12-29T09:49:19;2.80;;;1.40;;
77800;SDS011;66991;50.058;14.454;2023-12-29T09:51:45;2.60;;;1.20;;
77800;SDS011;66991;50.058;14.454;2023-12-29T09:54:11;4.30;;;1.17;;
77800;SDS011;66991;50.058;14.454;2023-12-29T09:56:38;8.18;;;1.42;;
77800;SDS011;66991;50.058;14.454;2023-12-29T09:59:03;2.97;;;1.15;;
77800;SDS011;66991;50.058;14.454;2023-12-29T10:01:29;2.55;;;1.20;;
77800;SDS011;66991;50.058;14.454;2023-12-29T10:03:55;3.30;;;1.08;;
77800;SDS011;66991;50.058;14.454;2023-12-29T10:06:23;2.38;;;1.10;;
77800;SDS011;66991;50.058;14.454;2023-12-29T10:08:49;4.28;;;1.67;;
77800;SDS011;66991;50.058;14.454;2023-12-29T10:11:15;2.85;;;1.50;;
77800;SDS011;66991;50.058;14.454;2023-12-29T10:13:43;2.92;;;1.30;;
77800;SDS011;66991;50.058;14.454;2023-12-29T10:16:18;4.28;;;1.25;;
77800;SDS011;66991;50.058;14.454;2023-12-29T10:19:02;5.13;;;1.73;;
77800;SDS011;66991;50.058;14.454;2023-12-29T10:21:35;2.75;;;1.40;;
77800;SDS011;66991;50.058;14.454;2023-12-29T10:24:12;2.22;;;1.10;;
77800;SDS011;66991;50.058;14.454;2023-12-29T10:26:44;2.25;;;0.95;;
77800;SDS011;66991;50.058;14.454;2023-12-29T10:29:10;2.05;;;1.30;;
77800;SDS011;66991;50.058;14.454;2023-12-29T10:31:36;2.78;;;1.20;;
77800;SDS011;66991;50.058;14.454;2023-12-29T10:34:21;2.63;;;1.20;;
77800;SDS011;66991;50.058;14.454;2023-12-29T10:36:59;2.85;;;1.30;;
77800;SDS011;66991;50.058;14.454;2023-12-29T10:39:28;3.05;;;1.50;;
77800;SDS011;66991;50.058;14.454;2023-12-29T10:42:07;3.17;;;1.33;;
77800;SDS011;66991;50.058;14.454;2023-12-29T10:44:34;2.45;;;1.10;;
77800;SDS011;66991;50.058;14.454;2023-12-29T10:47:10;6.50;;;1.20;;
77800;SDS011;66991;50.058;14.454;2023-12-29T10:49:36;2.88;;;1.20;;
77800;SDS011;66991;50.058;14.454;2023-12-29T10:52:14;2.22;;;1.10;;
77800;SDS011;66991;50.058;14.454;2023-12-29T10:54:40;2.90;;;0.85;;
77800;SDS011;66991;50.058;14.454;2023-12-29T10:57:12;2.40;;;1.00;;
77800;SDS011;66991;50.058;14.454;2023-12-29T10:59:41;3.58;;;1.35;;
77800;SDS011;66991;50.058;14.454;2023-12-29T11:02:07;3.03;;;1.20;;
77800;SDS011;66991;50.058;14.454;2023-12-29T11:04:33;4.75;;;1.27;;
77800;SDS011;66991;50.058;14.454;2023-12-29T11:06:59;4.30;;;1.33;;
77800;SDS011;66991;50.058;14.454;2023-12-29T11:09:28;2.88;;;1.40;;
77800;SDS011;66991;50.058;14.454;2023-12-29T11:12:01;2.47;;;1.33;;
77800;SDS011;66991;50.058;14.454;2023-12-29T11:14:28;2.47;;;1.10;;
77800;SDS011;66991;50.058;14.454;2023-12-29T11:16:57;2.15;;;1.08;;
77800;SDS011;66991;50.058;14.454;2023-12-29T11:19:23;2.20;;;0.95;;
77800;SDS011;66991;50.058;14.454;2023-12-29T11:21:51;2.15;;;1.13;;
77800;SDS011;66991;50.058;14.454;2023-12-29T11:24:19;3.85;;;1.08;;
77800;SDS011;66991;50.058;14.454;2023-12-29T11:26:45;2.05;;;0.98;;
77800;SDS011;66991;50.058;14.454;2023-12-29T11:29:11;2.15;;;1.02;;
77800;SDS011;66991;50.058;14.454;2023-12-29T11:31:37;2.58;;;1.10;;
77800;SDS011;66991;50.058;14.454;2023-12-29T11:34:05;3.80;;;1.00;;
77800;SDS011;66991;50.058;14.454;2023-12-29T11:36:35;2.10;;;0.98;;
77800;SDS011;66991;50.058;14.454;2023-12-29T11:42:00;2.22;;;0.80;;
77800;SDS011;66991;50.058;14.454;2023-12-29T11:44:28;3.08;;;0.90;;
77800;SDS011;66991;50.058;14.454;2023-12-29T11:46:55;2.42;;;1.00;;
77800;SDS011;66991;50.058;14.454;2023-12-29T11:49:22;1.90;;;0.90;;
77800;SDS011;66991;50.058;14.454;2023-12-29T11:51:47;3.22;;;1.00;;
77800;SDS011;66991;50.058;14.454;2023-12-29T11:54:22;1.80;;;0.70;;
77800;SDS011;66991;50.058;14.454;2023-12-29T11:56:49;2.33;;;0.80;;
77800;SDS011;66991;50.058;14.454;2023-12-29T11:59:15;1.90;;;0.95;;
77800;SDS011;66991;50.058;14.454;2023-12-29T12:01:51;6.10;;;1.02;;
77800;SDS011;66991;50.058;14.454;2023-12-29T12:04:36;1.95;;;0.80;;
77800;SDS011;66991;50.058;14.454;2023-12-29T12:09:50;2.80;;;0.90;;
77800;SDS011;66991;50.058;14.454;2023-12-29T12:18:06;1.95;;;1.10;;
77800;SDS011;66991;50.058;14.454;2023-12-29T12:20:32;2.95;;;1.10;;
77800;SDS011;66991;50.058;14.454;2023-12-29T12:23:11;2.08;;;0.93;;
77800;SDS011;66991;50.058;14.454;2023-12-29T12:25:39;2.20;;;1.00;;
77800;SDS011;66991;50.058;14.454;2023-12-29T12:28:05;2.80;;;1.20;;
77800;SDS011;66991;50.058;14.454;2023-12-29T12:30:31;2.20;;;1.10;;
77800;SDS011;66991;50.058;14.454;2023-12-29T12:33:02;2.33;;;1.00;;
77800;SDS011;66991;50.058;14.454;2023-12-29T12:35:28;2.72;;;1.30;;
77800;SDS011;66991;50.058;14.454;2023-12-29T12:40:39;2.00;;;1.10;;
77800;SDS011;66991;50.058;14.454;2023-12-29T12:43:05;2.65;;;0.98;;
77800;SDS011;66991;50.058;14.454;2023-12-29T12:45:35;1.92;;;0.90;;
77800;SDS011;66991;50.058;14.454;2023-12-29T12:48:12;1.42;;;0.93;;
77800;SDS011;66991;50.058;14.454;2023-12-29T12:50:49;1.60;;;0.85;;
77800;SDS011;66991;50.058;14.454;2023-12-29T12:53:14;2.17;;;0.80;;
77800;SDS011;66991;50.058;14.454;2023-12-29T12:55:46;2.22;;;1.25;;
77800;SDS011;66991;50.058;14.454;2023-12-29T12:58:13;2.40;;;1.00;;
77800;SDS011;66991;50.058;14.454;2023-12-29T13:00:39;5.50;;;0.95;;
77800;SDS011;66991;50.058;14.454;2023-12-29T13:03:05;2.20;;;0.80;;
77800;SDS011;66991;50.058;14.454;2023-12-29T13:05:31;3.17;;;0.90;;
77800;SDS011;66991;50.058;14.454;2023-12-29T13:07:56;2.17;;;1.17;;
77800;SDS011;66991;50.058;14.454;2023-12-29T13:10:22;2.65;;;0.90;;
77800;SDS011;66991;50.058;14.454;2023-12-29T13:12:54;1.50;;;0.85;;
77800;SDS011;66991;50.058;14.454;2023-12-29T13:15:20;1.60;;;0.90;;
77800;SDS011;66991;50.058;14.454;2023-12-29T13:17:51;1.95;;;0.88;;
77800;SDS011;66991;50.058;14.454;2023-12-29T13:20:17;6.82;;;1.08;;
77800;SDS011;66991;50.058;14.454;2023-12-29T13:22:43;2.35;;;0.95;;
77800;SDS011;66991;50.058;14.454;2023-12-29T13:25:08;3.75;;;0.90;;
77800;SDS011;66991;50.058;14.454;2023-12-29T13:27:36;1.40;;;0.63;;
77800;SDS011;66991;50.058;14.454;2023-12-29T13:30:03;1.27;;;0.70;;
77800;SDS011;66991;50.058;14.454;2023-12-29T13:32:28;1.20;;;0.65;;
77800;SDS011;66991;50.058;14.454;2023-12-29T13:37:52;1.55;;;0.70;;
77800;SDS011;66991;50.058;14.454;2023-12-29T13:43:12;2.00;;;0.90;;
77800;SDS011;66991;50.058;14.454;2023-12-29T13:45:39;2.17;;;1.15;;
77800;SDS011;66991;50.058;14.454;2023-12-29T13:48:05;2.65;;;1.13;;
77800;SDS011;66991;50.058;14.454;2023-12-29T13:50:32;2.75;;;1.20;;
77800;SDS011;66991;50.058;14.454;2023-12-29T13:52:57;2.50;;;1.00;;
77800;SDS011;66991;50.058;14.454;2023-12-29T13:55:23;2.40;;;1.00;;
77800;SDS011;66991;50.058;14.454;2023-12-29T13:57:48;3.47;;;1.27;;
77800;SDS011;66991;50.058;14.454;2023-12-29T14:02:45;2.08;;;0.80;;
77800;SDS011;66991;50.058;14.454;2023-12-29T14:05:19;2.13;;;1.00;;
77800;SDS011;66991;50.058;14.454;2023-12-29T14:10:32;2.10;;;0.80;;
77800;SDS011;66991;50.058;14.454;2023-12-29T14:13:05;2.83;;;1.00;;
77800;SDS011;66991;50.058;14.454;2023-12-29T14:15:35;3.45;;;0.93;;
77800;SDS011;66991;50.058;14.454;2023-12-29T14:18:09;1.75;;;0.85;;
77800;SDS011;66991;50.058;14.454;2023-12-29T14:20:48;4.57;;;0.95;;
77800;SDS011;66991;50.058;14.454;2023-12-29T14:23:13;2.78;;;1.25;;
77800;SDS011;66991;50.058;14.454;2023-12-29T14:25:39;2.10;;;1.15;;
77800;SDS011;66991;50.058;14.454;2023-12-29T14:28:13;2.17;;;0.90;;
77800;SDS011;66991;50.058;14.454;2023-12-29T14:30:40;2.70;;;0.88;;
77800;SDS011;66991;50.058;14.454;2023-12-29T14:33:05;1.50;;;0.75;;
77800;SDS011;66991;50.058;14.454;2023-12-29T14:35:30;1.77;;;0.90;;
77800;SDS011;66991;50.058;14.454;2023-12-29T14:37:56;1.83;;;0.85;;
77800;SDS011;66991;50.058;14.454;2023-12-29T14:40:21;1.92;;;0.77;;
77800;SDS011;66991;50.058;14.454;2023-12-29T14:42:46;3.00;;;1.00;;
77800;SDS011;66991;50.058;14.454;2023-12-29T14:45:12;1.92;;;0.90;;
77800;SDS011;66991;50.058;14.454;2023-12-29T14:47:37;3.80;;;0.95;;
77800;SDS011;66991;50.058;14.454;2023-12-29T14:50:03;2.08;;;1.30;;
77800;SDS011;66991;50.058;14.454;2023-12-29T14:52:28;2.53;;;1.00;;
77800;SDS011;66991;50.058;14.454;2023-12-29T14:54:53;1.40;;;0.57;;